National Weather Service Raw Text Product

Displaying AFOS PIL: TAFMCW Received: 2018-02-09 00:13 UTC


977 
FTUS43 KDMX 090013 AAA
TAFMCW
TAF AMD
KMCW 090013Z 0900/0924 07005KT 3SM -SN OVC024
      TEMPO 0900/0904 1SM -SN OVC011
     FM090400 04009KT 1/2SM SN OVC018
     FM091000 03012KT P6SM VCSH BKN027
     FM091200 02011KT P6SM BKN035=